sensor_id;sensor_type;location;lat;lon;timestamp;P1;durP1;ratioP1;P2;durP2;ratioP2
11541;SDS011;5827;49.482;7.716;2023-03-05T00:01:03;16.60;;;11.75;;
11541;SDS011;5827;49.482;7.716;2023-03-05T00:03:05;18.73;;;12.68;;
11541;SDS011;5827;49.482;7.716;2023-03-05T00:05:07;17.45;;;12.20;;
11541;SDS011;5827;49.482;7.716;2023-03-05T00:07:09;17.33;;;11.68;;
11541;SDS011;5827;49.482;7.716;2023-03-05T00:09:11;17.52;;;12.10;;
11541;SDS011;5827;49.482;7.716;2023-03-05T00:11:15;18.73;;;12.38;;
11541;SDS011;5827;49.482;7.716;2023-03-05T00:13:16;18.48;;;12.32;;
11541;SDS011;5827;49.482;7.716;2023-03-05T00:15:18;20.27;;;12.98;;
11541;SDS011;5827;49.482;7.716;2023-03-05T00:17:19;17.67;;;12.15;;
11541;SDS011;5827;49.482;7.716;2023-03-05T00:19:21;18.63;;;12.30;;
11541;SDS011;5827;49.482;7.716;2023-03-05T00:21:23;17.33;;;12.15;;
11541;SDS011;5827;49.482;7.716;2023-03-05T00:23:25;18.08;;;12.88;;
11541;SDS011;5827;49.482;7.716;2023-03-05T00:25:27;20.17;;;13.35;;
11541;SDS011;5827;49.482;7.716;2023-03-05T00:27:30;18.88;;;12.65;;
11541;SDS011;5827;49.482;7.716;2023-03-05T00:29:31;20.70;;;13.38;;
11541;SDS011;5827;49.482;7.716;2023-03-05T00:31:33;18.83;;;13.07;;
11541;SDS011;5827;49.482;7.716;2023-03-05T00:33:36;20.50;;;12.93;;
11541;SDS011;5827;49.482;7.716;2023-03-05T00:35:38;17.52;;;12.15;;
11541;SDS011;5827;49.482;7.716;2023-03-05T00:37:40;18.35;;;13.10;;
11541;SDS011;5827;49.482;7.716;2023-03-05T00:39:41;18.27;;;12.63;;
11541;SDS011;5827;49.482;7.716;2023-03-05T00:41:43;18.73;;;12.93;;
11541;SDS011;5827;49.482;7.716;2023-03-05T00:43:46;16.77;;;12.55;;
11541;SDS011;5827;49.482;7.716;2023-03-05T00:45:48;19.20;;;12.90;;
11541;SDS011;5827;49.482;7.716;2023-03-05T00:47:50;18.13;;;12.32;;
11541;SDS011;5827;49.482;7.716;2023-03-05T00:49:51;18.42;;;12.40;;
11541;SDS011;5827;49.482;7.716;2023-03-05T00:51:53;15.57;;;11.80;;
11541;SDS011;5827;49.482;7.716;2023-03-05T00:53:55;17.67;;;12.65;;
11541;SDS011;5827;49.482;7.716;2023-03-05T00:55:56;17.08;;;11.82;;
11541;SDS011;5827;49.482;7.716;2023-03-05T00:57:58;16.67;;;11.32;;
11541;SDS011;5827;49.482;7.716;2023-03-05T01:00:01;17.42;;;12.18;;
11541;SDS011;5827;49.482;7.716;2023-03-05T01:02:02;16.77;;;11.43;;
11541;SDS011;5827;49.482;7.716;2023-03-05T01:04:04;17.40;;;11.73;;
11541;SDS011;5827;49.482;7.716;2023-03-05T01:06:07;17.20;;;11.88;;
11541;SDS011;5827;49.482;7.716;2023-03-05T01:08:10;16.50;;;11.23;;
11541;SDS011;5827;49.482;7.716;2023-03-05T01:10:12;16.80;;;12.05;;
11541;SDS011;5827;49.482;7.716;2023-03-05T01:12:13;15.85;;;11.50;;
11541;SDS011;5827;49.482;7.716;2023-03-05T01:14:15;17.05;;;11.82;;
11541;SDS011;5827;49.482;7.716;2023-03-05T01:16:18;16.17;;;11.95;;
11541;SDS011;5827;49.482;7.716;2023-03-05T01:18:19;18.00;;;11.93;;
11541;SDS011;5827;49.482;7.716;2023-03-05T01:20:21;16.90;;;11.80;;
11541;SDS011;5827;49.482;7.716;2023-03-05T01:22:23;14.63;;;10.95;;
11541;SDS011;5827;49.482;7.716;2023-03-05T01:24:25;15.75;;;11.20;;
11541;SDS011;5827;49.482;7.716;2023-03-05T01:26:26;19.45;;;13.07;;
11541;SDS011;5827;49.482;7.716;2023-03-05T01:28:28;19.77;;;13.15;;
11541;SDS011;5827;49.482;7.716;2023-03-05T01:30:29;16.73;;;11.52;;
11541;SDS011;5827;49.482;7.716;2023-03-05T01:32:32;18.08;;;12.25;;
11541;SDS011;5827;49.482;7.716;2023-03-05T01:34:34;20.42;;;13.07;;
11541;SDS011;5827;49.482;7.716;2023-03-05T01:36:36;19.33;;;13.50;;
11541;SDS011;5827;49.482;7.716;2023-03-05T01:38:38;21.02;;;13.43;;
11541;SDS011;5827;49.482;7.716;2023-03-05T01:40:39;17.33;;;12.27;;
11541;SDS011;5827;49.482;7.716;2023-03-05T01:42:43;18.52;;;12.98;;
11541;SDS011;5827;49.482;7.716;2023-03-05T01:47:09;19.43;;;13.17;;
11541;SDS011;5827;49.482;7.716;2023-03-05T01:49:13;19.85;;;13.18;;
11541;SDS011;5827;49.482;7.716;2023-03-05T01:51:21;18.45;;;12.93;;
11541;SDS011;5827;49.482;7.716;2023-03-05T01:53:25;19.08;;;12.82;;
11541;SDS011;5827;49.482;7.716;2023-03-05T01:55:27;18.35;;;12.82;;
11541;SDS011;5827;49.482;7.716;2023-03-05T01:57:32;19.20;;;13.07;;
11541;SDS011;5827;49.482;7.716;2023-03-05T01:59:36;19.70;;;12.52;;
11541;SDS011;5827;49.482;7.716;2023-03-05T02:01:41;20.20;;;13.57;;
11541;SDS011;5827;49.482;7.716;2023-03-05T02:03:44;17.73;;;12.63;;
11541;SDS011;5827;49.482;7.716;2023-03-05T02:05:49;19.45;;;12.55;;
11541;SDS011;5827;49.482;7.716;2023-03-05T02:07:50;17.90;;;12.85;;
11541;SDS011;5827;49.482;7.716;2023-03-05T02:09:52;20.63;;;13.02;;
11541;SDS011;5827;49.482;7.716;2023-03-05T02:11:54;21.13;;;13.65;;
11541;SDS011;5827;49.482;7.716;2023-03-05T02:13:56;19.13;;;12.93;;
11541;SDS011;5827;49.482;7.716;2023-03-05T02:15:58;19.23;;;13.52;;
11541;SDS011;5827;49.482;7.716;2023-03-05T02:18:01;20.88;;;13.50;;
11541;SDS011;5827;49.482;7.716;2023-03-05T02:20:04;18.65;;;12.68;;
11541;SDS011;5827;49.482;7.716;2023-03-05T02:22:14;20.10;;;13.45;;
11541;SDS011;5827;49.482;7.716;2023-03-05T02:24:17;19.00;;;12.60;;
11541;SDS011;5827;49.482;7.716;2023-03-05T02:26:33;19.13;;;12.77;;
11541;SDS011;5827;49.482;7.716;2023-03-05T02:28:37;19.35;;;13.25;;
11541;SDS011;5827;49.482;7.716;2023-03-05T02:30:40;18.75;;;12.75;;
11541;SDS011;5827;49.482;7.716;2023-03-05T02:32:42;18.25;;;13.13;;
11541;SDS011;5827;49.482;7.716;2023-03-05T02:34:43;22.20;;;13.45;;
11541;SDS011;5827;49.482;7.716;2023-03-05T02:36:45;18.33;;;12.50;;
11541;SDS011;5827;49.482;7.716;2023-03-05T02:38:48;18.73;;;12.82;;
11541;SDS011;5827;49.482;7.716;2023-03-05T02:40:49;19.08;;;13.30;;
11541;SDS011;5827;49.482;7.716;2023-03-05T02:42:51;19.65;;;13.77;;
11541;SDS011;5827;49.482;7.716;2023-03-05T02:44:52;19.67;;;13.52;;
11541;SDS011;5827;49.482;7.716;2023-03-05T02:46:54;19.88;;;13.77;;
11541;SDS011;5827;49.482;7.716;2023-03-05T02:48:55;19.88;;;12.75;;
11541;SDS011;5827;49.482;7.716;2023-03-05T02:50:57;19.85;;;13.85;;
11541;SDS011;5827;49.482;7.716;2023-03-05T02:52:58;21.60;;;14.55;;
11541;SDS011;5827;49.482;7.716;2023-03-05T02:55:01;19.40;;;13.40;;
11541;SDS011;5827;49.482;7.716;2023-03-05T02:57:03;21.15;;;13.32;;
11541;SDS011;5827;49.482;7.716;2023-03-05T02:59:04;21.05;;;13.43;;
11541;SDS011;5827;49.482;7.716;2023-03-05T03:01:06;18.85;;;13.02;;
11541;SDS011;5827;49.482;7.716;2023-03-05T03:03:08;19.85;;;13.90;;
11541;SDS011;5827;49.482;7.716;2023-03-05T03:05:10;21.33;;;13.73;;
11541;SDS011;5827;49.482;7.716;2023-03-05T03:07:12;20.93;;;13.90;;
11541;SDS011;5827;49.482;7.716;2023-03-05T03:09:14;18.73;;;13.27;;
11541;SDS011;5827;49.482;7.716;2023-03-05T03:11:16;19.02;;;13.70;;
11541;SDS011;5827;49.482;7.716;2023-03-05T03:13:19;19.92;;;13.65;;
11541;SDS011;5827;49.482;7.716;2023-03-05T03:15:21;20.95;;;13.80;;
11541;SDS011;5827;49.482;7.716;2023-03-05T03:17:23;20.13;;;13.77;;
11541;SDS011;5827;49.482;7.716;2023-03-05T03:19:24;20.05;;;12.68;;
11541;SDS011;5827;49.482;7.716;2023-03-05T03:21:26;19.50;;;13.23;;
11541;SDS011;5827;49.482;7.716;2023-03-05T03:23:27;20.73;;;13.77;;
11541;SDS011;5827;49.482;7.716;2023-03-05T03:25:29;19.33;;;13.57;;
11541;SDS011;5827;49.482;7.716;2023-03-05T03:27:32;18.77;;;13.43;;
11541;SDS011;5827;49.482;7.716;2023-03-05T03:29:34;19.17;;;13.32;;
11541;SDS011;5827;49.482;7.716;2023-03-05T03:31:36;20.38;;;12.98;;
11541;SDS011;5827;49.482;7.716;2023-03-05T03:33:40;20.45;;;13.57;;
11541;SDS011;5827;49.482;7.716;2023-03-05T03:35:41;20.30;;;13.30;;
11541;SDS011;5827;49.482;7.716;2023-03-05T03:37:43;19.23;;;13.00;;
11541;SDS011;5827;49.482;7.716;2023-03-05T03:39:44;19.58;;;13.48;;
11541;SDS011;5827;49.482;7.716;2023-03-05T03:41:46;23.95;;;14.52;;
11541;SDS011;5827;49.482;7.716;2023-03-05T03:43:52;21.80;;;14.65;;
11541;SDS011;5827;49.482;7.716;2023-03-05T03:45:53;21.98;;;14.10;;
11541;SDS011;5827;49.482;7.716;2023-03-05T03:47:54;20.75;;;14.38;;
11541;SDS011;5827;49.482;7.716;2023-03-05T03:49:56;19.40;;;13.67;;
11541;SDS011;5827;49.482;7.716;2023-03-05T03:51:58;19.67;;;14.05;;
11541;SDS011;5827;49.482;7.716;2023-03-05T03:53:59;23.70;;;14.82;;
11541;SDS011;5827;49.482;7.716;2023-03-05T03:56:01;24.52;;;15.60;;
11541;SDS011;5827;49.482;7.716;2023-03-05T03:58:03;21.67;;;14.63;;
11541;SDS011;5827;49.482;7.716;2023-03-05T04:00:07;20.95;;;14.48;;
11541;SDS011;5827;49.482;7.716;2023-03-05T04:02:10;21.35;;;14.65;;
11541;SDS011;5827;49.482;7.716;2023-03-05T04:04:12;23.77;;;15.25;;
11541;SDS011;5827;49.482;7.716;2023-03-05T04:06:14;22.90;;;15.50;;
11541;SDS011;5827;49.482;7.716;2023-03-05T04:08:15;22.38;;;14.93;;
11541;SDS011;5827;49.482;7.716;2023-03-05T04:10:17;23.20;;;15.10;;
11541;SDS011;5827;49.482;7.716;2023-03-05T04:12:19;23.20;;;15.10;;
11541;SDS011;5827;49.482;7.716;2023-03-05T04:14:21;20.33;;;14.13;;
11541;SDS011;5827;49.482;7.716;2023-03-05T04:16:23;20.20;;;13.50;;
11541;SDS011;5827;49.482;7.716;2023-03-05T04:18:25;23.02;;;14.88;;
11541;SDS011;5827;49.482;7.716;2023-03-05T04:20:27;21.20;;;14.60;;
11541;SDS011;5827;49.482;7.716;2023-03-05T04:22:28;21.25;;;14.32;;
11541;SDS011;5827;49.482;7.716;2023-03-05T04:24:30;19.85;;;13.68;;
11541;SDS011;5827;49.482;7.716;2023-03-05T04:26:31;21.17;;;14.00;;
11541;SDS011;5827;49.482;7.716;2023-03-05T04:28:33;22.27;;;14.73;;
11541;SDS011;5827;49.482;7.716;2023-03-05T04:30:34;20.58;;;14.80;;
11541;SDS011;5827;49.482;7.716;2023-03-05T04:32:37;22.15;;;14.75;;
11541;SDS011;5827;49.482;7.716;2023-03-05T04:34:39;21.13;;;14.38;;
11541;SDS011;5827;49.482;7.716;2023-03-05T04:36:40;18.77;;;13.65;;
11541;SDS011;5827;49.482;7.716;2023-03-05T04:38:42;20.75;;;14.43;;
11541;SDS011;5827;49.482;7.716;2023-03-05T04:40:43;19.38;;;13.55;;
11541;SDS011;5827;49.482;7.716;2023-03-05T04:42:45;18.30;;;13.75;;
11541;SDS011;5827;49.482;7.716;2023-03-05T04:44:47;22.13;;;14.65;;
11541;SDS011;5827;49.482;7.716;2023-03-05T04:46:49;20.08;;;14.27;;
11541;SDS011;5827;49.482;7.716;2023-03-05T04:48:52;19.33;;;14.45;;
11541;SDS011;5827;49.482;7.716;2023-03-05T04:50:53;20.65;;;14.45;;
11541;SDS011;5827;49.482;7.716;2023-03-05T04:52:56;21.40;;;14.35;;
11541;SDS011;5827;49.482;7.716;2023-03-05T04:54:59;21.73;;;14.50;;
11541;SDS011;5827;49.482;7.716;2023-03-05T04:57:01;21.27;;;14.93;;
11541;SDS011;5827;49.482;7.716;2023-03-05T04:59:02;22.02;;;14.18;;
11541;SDS011;5827;49.482;7.716;2023-03-05T05:01:04;20.90;;;14.60;;
11541;SDS011;5827;49.482;7.716;2023-03-05T05:03:06;19.88;;;13.90;;
11541;SDS011;5827;49.482;7.716;2023-03-05T05:05:09;18.50;;;14.02;;
11541;SDS011;5827;49.482;7.716;2023-03-05T05:07:13;22.00;;;14.50;;
11541;SDS011;5827;49.482;7.716;2023-03-05T05:09:15;23.40;;;15.50;;
11541;SDS011;5827;49.482;7.716;2023-03-05T05:11:16;21.30;;;14.30;;
11541;SDS011;5827;49.482;7.716;2023-03-05T05:13:17;20.98;;;13.80;;
11541;SDS011;5827;49.482;7.716;2023-03-05T05:15:19;20.60;;;14.23;;
11541;SDS011;5827;49.482;7.716;2023-03-05T05:17:21;21.20;;;13.80;;
11541;SDS011;5827;49.482;7.716;2023-03-05T05:21:30;20.85;;;13.93;;
11541;SDS011;5827;49.482;7.716;2023-03-05T05:23:32;18.38;;;14.13;;
11541;SDS011;5827;49.482;7.716;2023-03-05T05:25:33;21.03;;;13.47;;
11541;SDS011;5827;49.482;7.716;2023-03-05T05:27:35;20.38;;;14.02;;
11541;SDS011;5827;49.482;7.716;2023-03-05T05:29:36;19.73;;;13.43;;
11541;SDS011;5827;49.482;7.716;2023-03-05T05:31:38;20.08;;;14.07;;
11541;SDS011;5827;49.482;7.716;2023-03-05T05:33:40;19.73;;;13.52;;
11541;SDS011;5827;49.482;7.716;2023-03-05T05:35:42;21.38;;;14.00;;
11541;SDS011;5827;49.482;7.716;2023-03-05T05:37:45;19.48;;;13.63;;
11541;SDS011;5827;49.482;7.716;2023-03-05T05:39:46;18.60;;;13.13;;
11541;SDS011;5827;49.482;7.716;2023-03-05T05:41:49;17.13;;;12.35;;
11541;SDS011;5827;49.482;7.716;2023-03-05T05:43:51;18.92;;;13.60;;
11541;SDS011;5827;49.482;7.716;2023-03-05T05:45:53;18.52;;;12.88;;
11541;SDS011;5827;49.482;7.716;2023-03-05T05:47:54;18.00;;;12.70;;
11541;SDS011;5827;49.482;7.716;2023-03-05T05:49:56;19.42;;;12.80;;
11541;SDS011;5827;49.482;7.716;2023-03-05T05:51:57;17.17;;;12.48;;
11541;SDS011;5827;49.482;7.716;2023-03-05T05:54:00;17.73;;;12.00;;
11541;SDS011;5827;49.482;7.716;2023-03-05T05:56:02;19.33;;;13.88;;
11541;SDS011;5827;49.482;7.716;2023-03-05T05:58:04;20.85;;;13.88;;
11541;SDS011;5827;49.482;7.716;2023-03-05T06:00:06;20.45;;;13.45;;
11541;SDS011;5827;49.482;7.716;2023-03-05T06:02:10;21.10;;;13.10;;
11541;SDS011;5827;49.482;7.716;2023-03-05T06:04:11;15.60;;;12.00;;
11541;SDS011;5827;49.482;7.716;2023-03-05T06:06:13;16.00;;;11.65;;
11541;SDS011;5827;49.482;7.716;2023-03-05T06:08:16;16.10;;;11.65;;
11541;SDS011;5827;49.482;7.716;2023-03-05T06:10:20;17.77;;;11.27;;
11541;SDS011;5827;49.482;7.716;2023-03-05T06:12:21;16.63;;;10.87;;
11541;SDS011;5827;49.482;7.716;2023-03-05T06:14:23;13.70;;;10.35;;
11541;SDS011;5827;49.482;7.716;2023-03-05T06:16:24;16.40;;;10.40;;
11541;SDS011;5827;49.482;7.716;2023-03-05T06:18:26;16.45;;;10.27;;
11541;SDS011;5827;49.482;7.716;2023-03-05T06:20:28;14.60;;;10.75;;
11541;SDS011;5827;49.482;7.716;2023-03-05T06:22:29;15.93;;;11.05;;
11541;SDS011;5827;49.482;7.716;2023-03-05T06:24:31;14.70;;;10.80;;
11541;SDS011;5827;49.482;7.716;2023-03-05T06:26:33;14.05;;;10.20;;
11541;SDS011;5827;49.482;7.716;2023-03-05T06:28:35;15.85;;;10.20;;
11541;SDS011;5827;49.482;7.716;2023-03-05T06:30:37;14.25;;;10.10;;
11541;SDS011;5827;49.482;7.716;2023-03-05T06:32:38;13.27;;;9.50;;
11541;SDS011;5827;49.482;7.716;2023-03-05T06:34:40;11.98;;;9.05;;
11541;SDS011;5827;49.482;7.716;2023-03-05T06:36:41;14.60;;;8.63;;
11541;SDS011;5827;49.482;7.716;2023-03-05T06:38:44;12.85;;;9.50;;
11541;SDS011;5827;49.482;7.716;2023-03-05T06:40:45;10.90;;;8.52;;
11541;SDS011;5827;49.482;7.716;2023-03-05T06:42:48;13.70;;;9.38;;
11541;SDS011;5827;49.482;7.716;2023-03-05T06:44:49;14.18;;;10.10;;
11541;SDS011;5827;49.482;7.716;2023-03-05T06:46:51;15.65;;;10.93;;
11541;SDS011;5827;49.482;7.716;2023-03-05T06:48:53;14.63;;;10.32;;
11541;SDS011;5827;49.482;7.716;2023-03-05T06:50:56;13.43;;;9.35;;
11541;SDS011;5827;49.482;7.716;2023-03-05T06:52:57;13.13;;;9.57;;
11541;SDS011;5827;49.482;7.716;2023-03-05T06:54:58;14.73;;;10.45;;
11541;SDS011;5827;49.482;7.716;2023-03-05T06:57:00;13.77;;;10.38;;
11541;SDS011;5827;49.482;7.716;2023-03-05T06:59:03;13.40;;;10.03;;
11541;SDS011;5827;49.482;7.716;2023-03-05T07:01:05;12.60;;;9.27;;
11541;SDS011;5827;49.482;7.716;2023-03-05T07:03:07;13.07;;;9.57;;
11541;SDS011;5827;49.482;7.716;2023-03-05T07:05:09;11.30;;;8.88;;
11541;SDS011;5827;49.482;7.716;2023-03-05T07:07:10;12.20;;;8.52;;
11541;SDS011;5827;49.482;7.716;2023-03-05T07:09:12;12.30;;;9.30;;
11541;SDS011;5827;49.482;7.716;2023-03-05T07:11:16;12.10;;;8.35;;
11541;SDS011;5827;49.482;7.716;2023-03-05T07:13:18;11.75;;;7.93;;
11541;SDS011;5827;49.482;7.716;2023-03-05T07:15:21;12.55;;;8.32;;
11541;SDS011;5827;49.482;7.716;2023-03-05T07:17:22;9.85;;;8.00;;
11541;SDS011;5827;49.482;7.716;2023-03-05T07:19:24;12.70;;;8.30;;
11541;SDS011;5827;49.482;7.716;2023-03-05T07:21:26;11.65;;;8.25;;
11541;SDS011;5827;49.482;7.716;2023-03-05T07:23:29;12.13;;;8.13;;
11541;SDS011;5827;49.482;7.716;2023-03-05T07:25:30;10.35;;;8.27;;
11541;SDS011;5827;49.482;7.716;2023-03-05T07:27:33;12.80;;;8.18;;
11541;SDS011;5827;49.482;7.716;2023-03-05T07:29:35;12.55;;;8.05;;
11541;SDS011;5827;49.482;7.716;2023-03-05T07:31:38;12.35;;;8.20;;
11541;SDS011;5827;49.482;7.716;2023-03-05T07:33:40;11.65;;;7.95;;
11541;SDS011;5827;49.482;7.716;2023-03-05T07:35:41;12.07;;;8.38;;
11541;SDS011;5827;49.482;7.716;2023-03-05T07:37:43;11.32;;;8.00;;
11541;SDS011;5827;49.482;7.716;2023-03-05T07:39:44;11.15;;;8.10;;
11541;SDS011;5827;49.482;7.716;2023-03-05T07:41:46;11.25;;;8.20;;
11541;SDS011;5827;49.482;7.716;2023-03-05T07:43:51;12.25;;;7.93;;
11541;SDS011;5827;49.482;7.716;2023-03-05T07:45:53;12.15;;;8.52;;
11541;SDS011;5827;49.482;7.716;2023-03-05T07:47:56;11.02;;;8.23;;
11541;SDS011;5827;49.482;7.716;2023-03-05T07:49:58;11.95;;;8.27;;
11541;SDS011;5827;49.482;7.716;2023-03-05T07:51:59;11.38;;;7.88;;
11541;SDS011;5827;49.482;7.716;2023-03-05T07:54:01;10.45;;;7.60;;
11541;SDS011;5827;49.482;7.716;2023-03-05T07:56:03;11.55;;;8.10;;
11541;SDS011;5827;49.482;7.716;2023-03-05T07:58:05;13.48;;;8.63;;
11541;SDS011;5827;49.482;7.716;2023-03-05T08:00:07;11.43;;;7.90;;
11541;SDS011;5827;49.482;7.716;2023-03-05T08:02:10;10.75;;;7.07;;
11541;SDS011;5827;49.482;7.716;2023-03-05T08:04:13;8.90;;;5.97;;
11541;SDS011;5827;49.482;7.716;2023-03-05T08:06:15;8.77;;;6.15;;
11541;SDS011;5827;49.482;7.716;2023-03-05T08:08:17;8.52;;;6.10;;
11541;SDS011;5827;49.482;7.716;2023-03-05T08:10:18;8.27;;;5.82;;
11541;SDS011;5827;49.482;7.716;2023-03-05T08:12:20;8.18;;;5.63;;
11541;SDS011;5827;49.482;7.716;2023-03-05T08:14:22;7.90;;;5.35;;
11541;SDS011;5827;49.482;7.716;2023-03-05T08:16:23;7.30;;;5.10;;
11541;SDS011;5827;49.482;7.716;2023-03-05T08:18:25;5.75;;;4.95;;
11541;SDS011;5827;49.482;7.716;2023-03-05T08:20:28;6.97;;;5.07;;
11541;SDS011;5827;49.482;7.716;2023-03-05T08:22:31;7.55;;;5.25;;
11541;SDS011;5827;49.482;7.716;2023-03-05T08:24:33;7.80;;;5.13;;
11541;SDS011;5827;49.482;7.716;2023-03-05T08:26:35;7.88;;;5.15;;
11541;SDS011;5827;49.482;7.716;2023-03-05T08:28:37;7.03;;;4.43;;
11541;SDS011;5827;49.482;7.716;2023-03-05T08:30:39;7.57;;;4.50;;
11541;SDS011;5827;49.482;7.716;2023-03-05T08:32:41;6.40;;;4.38;;
11541;SDS011;5827;49.482;7.716;2023-03-05T08:34:43;5.85;;;4.30;;
11541;SDS011;5827;49.482;7.716;2023-03-05T08:36:46;6.15;;;4.53;;
11541;SDS011;5827;49.482;7.716;2023-03-05T08:38:47;4.65;;;3.95;;
11541;SDS011;5827;49.482;7.716;2023-03-05T08:40:49;7.45;;;3.80;;
11541;SDS011;5827;49.482;7.716;2023-03-05T08:42:51;4.70;;;3.92;;
11541;SDS011;5827;49.482;7.716;2023-03-05T08:44:52;5.53;;;3.90;;
11541;SDS011;5827;49.482;7.716;2023-03-05T08:46:54;6.13;;;3.72;;
11541;SDS011;5827;49.482;7.716;2023-03-05T08:48:55;5.87;;;3.97;;
11541;SDS011;5827;49.482;7.716;2023-03-05T08:50:57;4.63;;;3.85;;
11541;SDS011;5827;49.482;7.716;2023-03-05T08:53:06;5.75;;;4.25;;
11541;SDS011;5827;49.482;7.716;2023-03-05T08:55:08;5.68;;;4.20;;
11541;SDS011;5827;49.482;7.716;2023-03-05T08:57:11;5.70;;;3.87;;
11541;SDS011;5827;49.482;7.716;2023-03-05T08:59:12;5.28;;;4.03;;
11541;SDS011;5827;49.482;7.716;2023-03-05T09:01:14;5.22;;;3.75;;
11541;SDS011;5827;49.482;7.716;2023-03-05T09:03:15;4.45;;;3.50;;
11541;SDS011;5827;49.482;7.716;2023-03-05T09:05:17;4.88;;;4.00;;
11541;SDS011;5827;49.482;7.716;2023-03-05T09:07:19;6.40;;;3.92;;
11541;SDS011;5827;49.482;7.716;2023-03-05T09:09:22;5.30;;;3.70;;
11541;SDS011;5827;49.482;7.716;2023-03-05T09:11:24;4.63;;;3.70;;
11541;SDS011;5827;49.482;7.716;2023-03-05T09:13:25;5.00;;;3.80;;
11541;SDS011;5827;49.482;7.716;2023-03-05T09:15:27;5.07;;;3.83;;
11541;SDS011;5827;49.482;7.716;2023-03-05T09:17:28;4.47;;;3.75;;
11541;SDS011;5827;49.482;7.716;2023-03-05T09:19:30;4.18;;;3.33;;
11541;SDS011;5827;49.482;7.716;2023-03-05T09:21:31;6.13;;;3.80;;
11541;SDS011;5827;49.482;7.716;2023-03-05T09:23:33;4.90;;;4.13;;
11541;SDS011;5827;49.482;7.716;2023-03-05T09:25:36;5.47;;;4.10;;
11541;SDS011;5827;49.482;7.716;2023-03-05T09:27:40;4.07;;;3.60;;
11541;SDS011;5827;49.482;7.716;2023-03-05T09:29:42;5.35;;;3.50;;
11541;SDS011;5827;49.482;7.716;2023-03-05T09:31:44;5.30;;;3.80;;
11541;SDS011;5827;49.482;7.716;2023-03-05T09:33:47;4.97;;;3.60;;
11541;SDS011;5827;49.482;7.716;2023-03-05T09:35:49;4.40;;;3.45;;
11541;SDS011;5827;49.482;7.716;2023-03-05T09:37:51;3.67;;;3.22;;
11541;SDS011;5827;49.482;7.716;2023-03-05T09:39:53;5.25;;;3.60;;
11541;SDS011;5827;49.482;7.716;2023-03-05T09:42:01;5.60;;;3.70;;
11541;SDS011;5827;49.482;7.716;2023-03-05T09:44:16;4.45;;;3.60;;
11541;SDS011;5827;49.482;7.716;2023-03-05T09:46:31;4.15;;;3.53;;
11541;SDS011;5827;49.482;7.716;2023-03-05T09:48:49;4.78;;;3.42;;
11541;SDS011;5827;49.482;7.716;2023-03-05T09:50:53;4.47;;;3.28;;
11541;SDS011;5827;49.482;7.716;2023-03-05T09:53:02;5.78;;;3.67;;
11541;SDS011;5827;49.482;7.716;2023-03-05T09:55:09;4.03;;;3.42;;
11541;SDS011;5827;49.482;7.716;2023-03-05T09:57:27;4.50;;;3.40;;
11541;SDS011;5827;49.482;7.716;2023-03-05T09:59:38;4.88;;;3.33;;
11541;SDS011;5827;49.482;7.716;2023-03-05T10:01:45;3.97;;;2.90;;
11541;SDS011;5827;49.482;7.716;2023-03-05T10:03:52;4.37;;;3.30;;
11541;SDS011;5827;49.482;7.716;2023-03-05T10:06:02;4.03;;;3.30;;
11541;SDS011;5827;49.482;7.716;2023-03-05T10:08:11;3.72;;;3.35;;
11541;SDS011;5827;49.482;7.716;2023-03-05T10:10:17;4.72;;;3.22;;
11541;SDS011;5827;49.482;7.716;2023-03-05T10:12:31;4.07;;;3.10;;
11541;SDS011;5827;49.482;7.716;2023-03-05T10:14:41;4.78;;;3.25;;
11541;SDS011;5827;49.482;7.716;2023-03-05T10:16:47;3.10;;;2.80;;
11541;SDS011;5827;49.482;7.716;2023-03-05T10:18:56;3.50;;;3.17;;
11541;SDS011;5827;49.482;7.716;2023-03-05T10:21:08;4.60;;;3.15;;
11541;SDS011;5827;49.482;7.716;2023-03-05T10:23:19;3.92;;;3.20;;
11541;SDS011;5827;49.482;7.716;2023-03-05T10:25:29;4.50;;;3.10;;
11541;SDS011;5827;49.482;7.716;2023-03-05T10:27:49;5.38;;;3.25;;
11541;SDS011;5827;49.482;7.716;2023-03-05T10:30:01;5.68;;;3.40;;
11541;SDS011;5827;49.482;7.716;2023-03-05T10:32:16;4.90;;;3.35;;
11541;SDS011;5827;49.482;7.716;2023-03-05T10:34:40;4.00;;;3.22;;
11541;SDS011;5827;49.482;7.716;2023-03-05T10:36:57;3.75;;;3.25;;
11541;SDS011;5827;49.482;7.716;2023-03-05T10:42:12;4.30;;;3.00;;
11541;SDS011;5827;49.482;7.716;2023-03-05T10:44:25;3.90;;;3.20;;
11541;SDS011;5827;49.482;7.716;2023-03-05T10:46:36;3.45;;;3.15;;
11541;SDS011;5827;49.482;7.716;2023-03-05T10:48:39;3.58;;;3.28;;
11541;SDS011;5827;49.482;7.716;2023-03-05T10:50:45;3.90;;;2.92;;
11541;SDS011;5827;49.482;7.716;2023-03-05T10:52:51;3.20;;;2.90;;
11541;SDS011;5827;49.482;7.716;2023-03-05T10:55:11;3.77;;;3.23;;
11541;SDS011;5827;49.482;7.716;2023-03-05T10:57:16;3.73;;;3.10;;
11541;SDS011;5827;49.482;7.716;2023-03-05T10:59:19;3.92;;;3.00;;
11541;SDS011;5827;49.482;7.716;2023-03-05T11:01:22;4.00;;;3.30;;
11541;SDS011;5827;49.482;7.716;2023-03-05T11:03:35;5.18;;;3.40;;
11541;SDS011;5827;49.482;7.716;2023-03-05T11:05:47;4.13;;;3.33;;
11541;SDS011;5827;49.482;7.716;2023-03-05T11:07:51;4.78;;;3.45;;
11541;SDS011;5827;49.482;7.716;2023-03-05T11:10:00;3.30;;;3.00;;
11541;SDS011;5827;49.482;7.716;2023-03-05T11:12:08;3.42;;;3.10;;
11541;SDS011;5827;49.482;7.716;2023-03-05T11:14:22;3.40;;;3.10;;
11541;SDS011;5827;49.482;7.716;2023-03-05T11:16:31;4.15;;;3.58;;
11541;SDS011;5827;49.482;7.716;2023-03-05T11:18:34;5.70;;;4.30;;
11541;SDS011;5827;49.482;7.716;2023-03-05T11:20:36;4.35;;;3.83;;
11541;SDS011;5827;49.482;7.716;2023-03-05T11:22:38;4.35;;;3.22;;
11541;SDS011;5827;49.482;7.716;2023-03-05T11:24:40;4.28;;;3.20;;
11541;SDS011;5827;49.482;7.716;2023-03-05T11:26:46;3.83;;;3.17;;
11541;SDS011;5827;49.482;7.716;2023-03-05T11:28:56;3.67;;;3.22;;
11541;SDS011;5827;49.482;7.716;2023-03-05T11:31:03;3.90;;;3.20;;
11541;SDS011;5827;49.482;7.716;2023-03-05T11:33:11;4.03;;;3.28;;
11541;SDS011;5827;49.482;7.716;2023-03-05T11:35:28;4.13;;;3.40;;
11541;SDS011;5827;49.482;7.716;2023-03-05T11:37:32;3.90;;;3.50;;
11541;SDS011;5827;49.482;7.716;2023-03-05T11:39:33;3.88;;;3.17;;
11541;SDS011;5827;49.482;7.716;2023-03-05T11:41:39;4.55;;;3.42;;
11541;SDS011;5827;49.482;7.716;2023-03-05T11:43:42;4.10;;;3.70;;
11541;SDS011;5827;49.482;7.716;2023-03-05T11:45:44;5.07;;;3.50;;
11541;SDS011;5827;49.482;7.716;2023-03-05T11:47:49;4.22;;;3.83;;
11541;SDS011;5827;49.482;7.716;2023-03-05T11:49:59;5.07;;;3.60;;
11541;SDS011;5827;49.482;7.716;2023-03-05T11:52:06;6.22;;;4.00;;
11541;SDS011;5827;49.482;7.716;2023-03-05T11:54:14;7.38;;;4.10;;
11541;SDS011;5827;49.482;7.716;2023-03-05T11:56:23;4.90;;;3.85;;
11541;SDS011;5827;49.482;7.716;2023-03-05T11:58:28;6.95;;;4.07;;
11541;SDS011;5827;49.482;7.716;2023-03-05T12:00:34;4.82;;;4.10;;
11541;SDS011;5827;49.482;7.716;2023-03-05T12:02:42;5.97;;;4.40;;
11541;SDS011;5827;49.482;7.716;2023-03-05T12:04:44;5.45;;;4.10;;
11541;SDS011;5827;49.482;7.716;2023-03-05T12:06:49;5.80;;;4.57;;
11541;SDS011;5827;49.482;7.716;2023-03-05T12:08:52;5.97;;;4.88;;
11541;SDS011;5827;49.482;7.716;2023-03-05T12:10:56;5.70;;;4.50;;
11541;SDS011;5827;49.482;7.716;2023-03-05T12:13:01;6.15;;;4.70;;
11541;SDS011;5827;49.482;7.716;2023-03-05T12:15:20;4.67;;;4.27;;
11541;SDS011;5827;49.482;7.716;2023-03-05T12:17:34;7.18;;;5.30;;
11541;SDS011;5827;49.482;7.716;2023-03-05T12:19:44;6.40;;;4.85;;
11541;SDS011;5827;49.482;7.716;2023-03-05T12:21:53;6.00;;;4.90;;
11541;SDS011;5827;49.482;7.716;2023-03-05T12:23:55;6.65;;;5.28;;
11541;SDS011;5827;49.482;7.716;2023-03-05T12:26:00;6.72;;;5.07;;
11541;SDS011;5827;49.482;7.716;2023-03-05T12:28:03;7.78;;;4.88;;
11541;SDS011;5827;49.482;7.716;2023-03-05T12:30:07;5.47;;;4.30;;